Flight Track Log - Related Links

Times and Time Zones

All times are in EST time to prevent confusion due to time zone crossing. See the FLG3529 flight status page for this flight to view local times or setup timezone preferences in your user account.

Time Position Orientation Groundspeed Altitude Reporting Facility
EST Latitude Longitude Course Direction KTS MPH feet Rate Location/Type
Wed 06:13:29 AM 42.2014 -85.5344 111° Southeast 169 194 2,600  Level Chicago Center
Wed 06:14:29 AM 42.1797 -85.4569 111° Southeast 226 260 4,300 2,331 Climbing Chicago Center
Wed 06:15:30 AM 42.1639 -85.3489 101° East 275 316 7,300 2,975 Climbing Chicago Center
Wed 06:16:30 AM 42.1431 -85.2297 103° East 297 342 10,300 1,900 Climbing Chicago Center
Wed 06:17:30 AM 42.1214 -85.1067 103° East 328 377 11,100 397 Climbing Chicago Center
Wed 06:18:31 AM 42.0958 -84.9575 103° East 397 457 11,100 248 Level Chicago Center
Wed 06:19:31 AM 42.0658 -84.8122 105° East 404 465 11,600 496 Climbing Chicago Center
Wed 06:20:32 AM 42.0219 -84.6722 113° Southeast 406 467 12,100 248 Climbing Chicago Center
Wed 06:21:32 AM 41.9797 -84.5331 112° Southeast 404 465 12,100  Level Chicago Center
Wed 06:22:33 AM 41.9378 -84.4003 113° Southeast 402 463 12,100 -58 Level Chicago Center
Wed 06:23:16 AM 41.9036 -84.2903 113° Southeast 398 458 12,000 -68 Descending Cleveland Center
Wed 06:24:01 AM 41.8731 -84.1958 113° Southeast 403 464 12,000  Level Cleveland Center
Wed 06:24:05 AM 41.8675 -84.1750 110° East 397 457 12,000  Level Cleveland Center
Wed 06:25:12 AM 41.8428 -84.0197 102° East 414 476 12,000  Level Cleveland Center
Wed 06:26:03 AM 41.8922 -83.9250 55° Northeast 406 467 12,000  Level Cleveland Center
Wed 06:26:12 AM 41.9097 -83.8981 49° Northeast 414 476 12,000  Level Cleveland Center
Wed 06:27:04 AM 41.9706 -83.8142 46° Northeast 408 470 12,000  Level Cleveland Center
Wed 06:27:13 AM 41.9897 -83.7919 41° Northeast 410 472 12,000  Level Cleveland Center
Wed 06:28:04 AM 42.0544 -83.7128 42° Northeast 406 467 12,000  Level Cleveland Center
Wed 06:28:13 AM 42.0828 -83.6789 42° Northeast 414 476 12,000 -885 Level Cleveland Center
Wed 06:29:05 AM 42.1367 -83.6089 44° Northeast 410 472 11,100 -1,377 Descending Cleveland Center
Wed 06:29:14 AM 42.1600 -83.5803 42° Northeast 357 411 10,600 -1,377 Descending Cleveland Center
Wed 06:30:06 AM 42.2192 -83.5142 40° Northeast 326 375 9,700 -982 Descending Cleveland Center
Wed 06:30:09 AM 42.2219 -83.5103 46° Northeast 293 337 9,700 -1,967 Level Cleveland Center
Wed 06:31:07 AM 42.2900 -83.4550 31° Northeast 302 348 7,700 -2,000 Descending Cleveland Center
Wed 06:31:09 AM 42.2917 -83.4525 48° Northeast 295 339 7,700 -2,066 Level Cleveland Center
Wed 06:32:08 AM 42.3600 -83.3972 31° Northeast 296 341 5,600 -2,066 Descending Cleveland Center
Wed 06:32:10 AM 42.3586 -83.4000 236° Southwest 276 318 5,600 -1,574 Level Cleveland Center
Wed 06:33:09 AM 42.4181 -83.3589 27° Northeast 275 316 4,000 -1,600 Descending Cleveland Center
Wed 06:33:10 AM 42.4275 -83.3503 34° Northeast 264 304 4,000 -100 Level Cleveland Center
Wed 06:34:09 AM 42.4300 -83.2825 87° East 248 285 3,900  Descending Cleveland Center
Wed 06:34:11 AM 42.4211 -83.2703 135° Southeast 228 262 4,000 197 Climbing Cleveland Center
Wed 06:35:10 AM 42.3789 -83.2519 162° South 212 244 4,100  Climbing Cleveland Center
Wed 06:35:12 AM 42.3672 -83.2600 207° Southwest 199 229 4,000 -885 Descending Cleveland Center
Wed 06:36:11 AM 42.3317 -83.2889 211° Southwest 196 226 3,200 -1,000 Descending Cleveland Center
Wed 06:36:12 AM 42.3206 -83.2958 205° Southwest 192 221 3,000 -1,082 Descending Cleveland Center
Wed 06:37:12 AM 42.2858 -83.3228 210° Southwest 193 222 2,100 -1,082 Descending Cleveland Center
Wed 06:37:13 AM 42.2761 -83.3292 206° Southwest 169 194 1,900 -885 Descending Cleveland Center
Wed 06:38:13 AM 42.2497 -83.3500 210° Southwest 162 186 1,200 -787 Descending Cleveland Center
Wed 06:38:14 AM 42.2425 -83.3553 208° Southwest 133 153 1,100 -393 Descending Cleveland Center
Wed 06:39:14 AM 42.2128 -83.3761 207° Southwest 147 169 800 -300 Descending Cleveland Center

Login

Don't have an account? Register now (free) for customized features, flight alerts, and more!